createdAt,value
2023-02-17T00:01:30.559Z,0.69
2023-02-17T00:03:58.497Z,0.72
2023-02-17T00:06:28.394Z,0.75
2023-02-17T00:08:56.098Z,0.77
2023-02-17T00:11:23.044Z,0.79
2023-02-17T00:13:53.954Z,0.81
2023-02-17T00:16:26.153Z,0.84
2023-02-17T00:18:55.750Z,0.86
2023-02-17T00:21:24.799Z,0.86
2023-02-17T00:23:52.945Z,0.87
2023-02-17T00:26:21.425Z,0.87
2023-02-17T00:28:49.268Z,0.89
2023-02-17T00:31:19.299Z,0.90
2023-02-17T00:33:47.548Z,0.89
2023-02-17T00:36:19.287Z,0.87
2023-02-17T00:38:48.312Z,0.86
2023-02-17T00:41:18.638Z,0.86
2023-02-17T00:43:46.577Z,0.86
2023-02-17T00:46:13.846Z,0.88
2023-02-17T00:48:41.239Z,0.90
2023-02-17T00:51:08.737Z,0.91
2023-02-17T00:53:36.572Z,0.92
2023-02-17T00:56:05.419Z,0.93
2023-02-17T00:58:32.814Z,0.92
2023-02-17T01:00:59.889Z,0.92
2023-02-17T01:03:28.320Z,0.91
2023-02-17T01:05:56.567Z,0.91
2023-02-17T01:08:24.162Z,0.92
2023-02-17T01:10:52.644Z,0.96
2023-02-17T01:13:20.166Z,1.01
2023-02-17T01:15:50.119Z,1.04
2023-02-17T01:18:18.949Z,1.08
2023-02-17T01:20:46.095Z,1.11
2023-02-17T01:23:14.178Z,1.12
2023-02-17T01:25:44.323Z,1.10
2023-02-17T01:28:21.214Z,1.08
2023-02-17T01:30:49.536Z,1.08
2023-02-17T01:33:16.871Z,1.09
2023-02-17T01:35:44.017Z,1.10
2023-02-17T01:38:11.034Z,1.12
2023-02-17T01:40:38.002Z,1.14
2023-02-17T01:43:07.302Z,1.17
2023-02-17T01:45:46.795Z,1.19
2023-02-17T01:48:18.954Z,1.18
2023-02-17T01:51:15.353Z,1.17
2023-02-17T01:53:55.377Z,1.17
2023-02-17T01:56:23.272Z,1.17
2023-02-17T01:58:57.764Z,1.18
2023-02-17T02:01:24.948Z,1.19
2023-02-17T02:03:53.595Z,1.21
2023-02-17T02:06:26.145Z,1.23
2023-02-17T02:09:06.114Z,1.24
2023-02-17T02:11:34.393Z,1.28
2023-02-17T02:14:03.102Z,1.33
2023-02-17T02:16:57.033Z,1.39
2023-02-17T02:19:32.633Z,1.45
2023-02-17T02:22:11.432Z,1.48
2023-02-17T02:24:59.045Z,1.50
2023-02-17T02:27:29.193Z,1.55
2023-02-17T02:29:59.470Z,1.60
2023-02-17T02:32:57.276Z,1.64
2023-02-17T02:35:39.566Z,1.69
2023-02-17T02:38:17.596Z,1.74
2023-02-17T02:40:49.439Z,1.78
2023-02-17T02:43:16.881Z,1.79
2023-02-17T02:45:44.018Z,1.80
2023-02-17T02:48:11.033Z,1.81
2023-02-17T02:50:59.433Z,1.82
2023-02-17T02:53:50.974Z,1.84
2023-02-17T02:56:31.353Z,1.87
2023-02-17T02:59:10.787Z,1.90
2023-02-17T03:01:57.951Z,1.92
2023-02-17T03:04:38.962Z,1.93
2023-02-17T03:07:21.833Z,1.94
2023-02-17T03:09:53.997Z,1.94
2023-02-17T03:12:22.980Z,1.93
2023-02-17T03:14:55.194Z,1.91
2023-02-17T03:17:22.234Z,1.94
2023-02-17T03:19:49.331Z,1.97
2023-02-17T03:22:25.776Z,2.02
2023-02-17T03:24:52.879Z,2.07
2023-02-17T03:27:20.153Z,2.12
2023-02-17T03:29:47.193Z,2.16
2023-02-17T03:32:14.330Z,2.19
2023-02-17T03:34:41.356Z,2.20
2023-02-17T03:37:08.316Z,2.20
2023-02-17T03:39:35.362Z,2.21
2023-02-17T03:42:02.634Z,2.22
2023-02-17T03:44:29.690Z,2.22
2023-02-17T03:46:56.716Z,2.23
2023-02-17T03:49:23.756Z,2.24
2023-02-17T03:51:50.893Z,2.25
2023-02-17T03:54:18.008Z,2.25
2023-02-17T03:56:50.469Z,2.28
2023-02-17T03:59:17.955Z,2.30
2023-02-17T04:01:45.170Z,2.35
2023-02-17T04:04:12.249Z,2.40
2023-02-17T04:06:39.466Z,2.44
2023-02-17T04:09:07.018Z,2.48
2023-02-17T04:11:34.105Z,2.52
2023-02-17T04:14:01.421Z,2.54
2023-02-17T04:16:28.507Z,2.53
2023-02-17T04:18:55.867Z,2.51
2023-02-17T04:21:23.580Z,2.49
2023-02-17T04:23:50.667Z,2.49
2023-02-17T04:26:18.027Z,2.47
2023-02-17T04:28:45.312Z,2.46
2023-02-17T04:31:12.460Z,2.44
2023-02-17T04:33:39.784Z,2.44
2023-02-17T04:36:07.206Z,2.46
2023-02-17T04:38:35.175Z,2.49
2023-02-17T04:41:02.808Z,2.52
2023-02-17T04:43:30.511Z,2.56
2023-02-17T04:45:58.247Z,2.60
2023-02-17T04:48:26.513Z,2.64
2023-02-17T04:50:54.053Z,2.65
2023-02-17T04:53:21.205Z,2.66
2023-02-17T04:55:50.984Z,2.67
2023-02-17T04:58:18.673Z,2.66
2023-02-17T05:00:49.807Z,2.64
2023-02-17T05:03:17.481Z,2.62
2023-02-17T05:05:45.062Z,2.58
2023-02-17T05:08:12.390Z,2.56
2023-02-17T05:10:39.795Z,2.54
2023-02-17T05:13:06.790Z,2.56
2023-02-17T05:15:35.062Z,2.60
2023-02-17T05:18:03.227Z,2.66
2023-02-17T05:20:30.761Z,2.71
2023-02-17T05:23:00.411Z,2.75
2023-02-17T05:25:27.965Z,2.77
2023-02-17T05:27:55.237Z,2.77
2023-02-17T05:30:22.671Z,2.78
2023-02-17T05:32:50.464Z,2.77
2023-02-17T05:35:22.961Z,2.77
2023-02-17T05:37:50.338Z,2.77
2023-02-17T05:40:17.849Z,2.79
2023-02-17T05:42:45.290Z,2.81
2023-02-17T05:45:12.297Z,2.85
2023-02-17T05:47:39.141Z,2.89
2023-02-17T05:50:07.173Z,2.93
2023-02-17T05:52:34.421Z,2.95
2023-02-17T05:55:01.400Z,2.97
2023-02-17T05:57:28.441Z,2.99
2023-02-17T05:59:55.531Z,3.02
2023-02-17T06:02:22.947Z,3.04
2023-02-17T06:04:50.095Z,3.05
2023-02-17T06:07:17.704Z,3.08
2023-02-17T06:09:46.471Z,3.13
2023-02-17T06:12:14.200Z,3.18
2023-02-17T06:14:41.039Z,3.25
2023-02-17T06:17:08.191Z,3.31
2023-02-17T06:19:35.128Z,3.37
2023-02-17T06:22:02.382Z,3.39
2023-02-17T06:24:29.466Z,3.39
2023-02-17T06:26:56.370Z,3.40
2023-02-17T06:29:23.423Z,3.40
2023-02-17T06:31:50.516Z,3.39
2023-02-17T06:34:17.942Z,3.40
2023-02-17T06:36:44.980Z,3.43
2023-02-17T06:39:12.110Z,3.46
2023-02-17T06:41:39.153Z,3.48
2023-02-17T06:44:06.042Z,3.51
2023-02-17T06:46:32.827Z,3.52
2023-02-17T06:49:00.820Z,3.51
2023-02-17T06:51:28.840Z,3.51
2023-02-17T06:53:56.827Z,3.51
2023-02-17T06:56:23.792Z,3.55
2023-02-17T06:58:51.978Z,3.59
2023-02-17T07:01:21.887Z,3.65
2023-02-17T07:03:49.741Z,3.73
2023-02-17T07:06:16.699Z,3.79
2023-02-17T07:08:43.746Z,3.84
2023-02-17T07:11:12.622Z,3.89
2023-02-17T07:13:41.362Z,3.90
2023-02-17T07:16:10.432Z,3.92
2023-02-17T07:18:38.154Z,3.95
2023-02-17T07:21:07.314Z,4.00
2023-02-17T07:23:34.824Z,4.08
2023-02-17T07:26:07.315Z,4.16
2023-02-17T07:28:34.427Z,4.24
2023-02-17T07:31:13.729Z,4.34
2023-02-17T07:33:42.216Z,4.42
2023-02-17T07:36:11.872Z,4.48
2023-02-17T07:38:39.496Z,4.52
2023-02-17T07:41:08.470Z,4.53
2023-02-17T07:43:35.823Z,4.55
2023-02-17T07:46:03.231Z,4.57
2023-02-17T07:48:31.188Z,4.61
2023-02-17T07:50:58.229Z,4.67
2023-02-17T07:53:31.341Z,4.73
2023-02-17T07:56:05.693Z,4.76
2023-02-17T07:58:37.649Z,4.78
2023-02-17T08:01:17.407Z,4.78
2023-02-17T08:03:45.648Z,4.79
2023-02-17T08:06:22.695Z,4.78
2023-02-17T08:09:09.810Z,4.80
2023-02-17T08:11:56.157Z,4.82
2023-02-17T08:14:25.517Z,4.86
2023-02-17T08:16:53.279Z,4.90
2023-02-17T08:19:20.927Z,4.94
2023-02-17T08:21:48.858Z,4.97
2023-02-17T08:24:22.153Z,4.95
2023-02-17T08:26:49.809Z,4.92
2023-02-17T08:29:17.765Z,4.86
2023-02-17T08:31:45.237Z,4.75
2023-02-17T08:34:14.067Z,4.64
2023-02-17T08:36:41.054Z,4.56
2023-02-17T08:39:12.340Z,4.49
2023-02-17T08:41:41.070Z,4.45
2023-02-17T08:44:11.844Z,4.44
2023-02-17T08:46:39.552Z,4.41
2023-02-17T08:49:07.906Z,4.40
2023-02-17T08:51:35.643Z,4.41
2023-02-17T08:54:04.898Z,4.42
2023-02-17T08:56:32.256Z,4.44
2023-02-17T08:58:59.627Z,4.48
2023-02-17T09:01:27.706Z,4.56
2023-02-17T09:03:56.647Z,4.64
2023-02-17T09:06:23.971Z,4.71
2023-02-17T09:08:51.432Z,4.76
2023-02-17T09:11:20.074Z,4.77
2023-02-17T09:13:47.717Z,4.79
2023-02-17T09:16:15.171Z,4.79
2023-02-17T09:18:42.524Z,4.79
2023-02-17T09:21:12.074Z,4.78
2023-02-17T09:23:40.179Z,4.78
2023-02-17T09:26:11.270Z,4.77
2023-02-17T09:28:39.178Z,4.77
2023-02-17T09:31:10.813Z,4.76
2023-02-17T09:33:38.141Z,4.77
2023-02-17T09:36:08.222Z,4.81
2023-02-17T09:38:38.143Z,4.83
2023-02-17T09:41:25.407Z,4.84
2023-02-17T09:43:54.778Z,4.86
2023-02-17T09:46:29.745Z,4.88
2023-02-17T09:49:01.934Z,4.90
2023-02-17T09:51:38.314Z,4.93
2023-02-17T09:54:15.865Z,4.98
2023-02-17T09:56:46.414Z,5.11
2023-02-17T09:59:36.931Z,5.24
2023-02-17T10:02:16.845Z,5.34
2023-02-17T10:04:49.010Z,5.45
2023-02-17T10:07:29.380Z,5.51
2023-02-17T10:10:06.500Z,5.56
2023-02-17T10:12:39.743Z,5.56
2023-02-17T10:15:47.723Z,5.57
2023-02-17T10:18:21.718Z,5.56
2023-02-17T10:21:01.148Z,5.55
2023-02-17T10:23:47.965Z,5.56
2023-02-17T10:26:35.079Z,5.61
2023-02-17T10:29:14.247Z,5.65
2023-02-17T10:32:00.407Z,5.64
2023-02-17T10:34:53.729Z,5.64
2023-02-17T10:37:45.549Z,5.62
2023-02-17T10:40:19.067Z,5.61
2023-02-17T10:42:47.807Z,5.60
2023-02-17T10:45:38.610Z,5.60
2023-02-17T10:48:17.459Z,5.64
2023-02-17T10:50:47.318Z,5.71
2023-02-17T10:53:28.199Z,5.79
2023-02-17T10:56:07.079Z,5.89
2023-02-17T10:58:41.743Z,5.94
2023-02-17T11:01:09.759Z,5.92
2023-02-17T11:03:38.524Z,5.91
2023-02-17T11:06:15.712Z,5.87
2023-02-17T11:08:48.808Z,5.84
2023-02-17T11:11:23.641Z,5.85
2023-02-17T11:14:12.442Z,5.84
2023-02-17T11:16:44.292Z,5.87
2023-02-17T11:19:25.142Z,5.88
2023-02-17T11:21:57.389Z,5.89
2023-02-17T11:24:25.830Z,5.89
2023-02-17T11:27:03.074Z,5.91
2023-02-17T11:29:31.393Z,5.91
2023-02-17T11:32:00.126Z,5.92
2023-02-17T11:34:36.446Z,5.97
2023-02-17T11:37:12.662Z,6.04
2023-02-17T11:39:46.479Z,6.08
2023-02-17T11:42:32.006Z,6.07
2023-02-17T11:45:01.633Z,6.04
2023-02-17T11:47:43.948Z,6.02
2023-02-17T11:50:40.116Z,5.99
2023-02-17T11:53:23.708Z,5.98
2023-02-17T11:56:26.960Z,5.99
2023-02-17T11:59:11.313Z,5.98
2023-02-17T12:01:50.522Z,5.98
2023-02-17T12:04:34.665Z,5.96
2023-02-17T12:07:32.858Z,5.96
2023-02-17T12:10:37.959Z,5.99
2023-02-17T12:13:42.726Z,6.06
2023-02-17T12:17:11.922Z,6.12
2023-02-17T12:19:46.011Z,6.16
2023-02-17T12:22:28.036Z,6.14
2023-02-17T12:25:22.846Z,6.13
2023-02-17T12:27:59.161Z,6.11
2023-02-17T12:30:47.354Z,6.10
2023-02-17T12:33:41.890Z,6.13
2023-02-17T12:36:13.472Z,6.13
2023-02-17T12:38:47.011Z,6.13
2023-02-17T12:41:24.969Z,6.13
2023-02-17T12:44:19.052Z,6.15
2023-02-17T12:46:50.931Z,6.14
2023-02-17T12:49:27.411Z,6.14
2023-02-17T12:52:06.398Z,6.16
2023-02-17T12:54:39.063Z,6.21
2023-02-17T12:57:12.941Z,6.28
2023-02-17T12:59:43.310Z,6.34
2023-02-17T13:02:25.769Z,6.41
2023-02-17T13:04:56.052Z,6.46
2023-02-17T13:07:57.384Z,6.52
2023-02-17T13:10:27.396Z,6.58
2023-02-17T13:13:01.194Z,6.64
2023-02-17T13:15:34.002Z,6.73
2023-02-17T13:18:04.221Z,6.80
2023-02-17T13:20:56.458Z,6.86
2023-02-17T13:23:43.588Z,6.87
2023-02-17T13:26:14.083Z,6.89
2023-02-17T13:28:42.377Z,6.90
2023-02-17T13:31:13.800Z,6.92
2023-02-17T13:33:51.802Z,6.97
2023-02-17T13:36:29.364Z,7.00
2023-02-17T13:39:01.766Z,7.01
2023-02-17T13:41:45.905Z,7.01
2023-02-17T13:44:25.029Z,7.01
2023-02-17T13:46:53.829Z,6.99
2023-02-17T13:49:27.927Z,6.97
2023-02-17T13:51:55.733Z,6.98
2023-02-17T13:54:23.946Z,6.99
2023-02-17T13:56:54.291Z,6.98
2023-02-17T13:59:28.232Z,6.96
2023-02-17T14:01:55.865Z,6.91
2023-02-17T14:04:30.768Z,6.86
2023-02-17T14:07:00.461Z,6.81
2023-02-17T14:09:33.601Z,6.75
2023-02-17T14:12:03.998Z,6.69
2023-02-17T14:14:37.042Z,6.62
2023-02-17T14:17:06.888Z,6.55
2023-02-17T14:19:48.958Z,6.52
2023-02-17T14:22:34.620Z,6.46
2023-02-17T14:25:31.170Z,6.44
2023-02-17T14:27:58.369Z,6.47
2023-02-17T14:30:33.795Z,6.48
2023-02-17T14:33:20.917Z,6.50
2023-02-17T14:36:00.321Z,6.50
2023-02-17T14:38:35.435Z,6.50
2023-02-17T14:41:02.520Z,6.50
2023-02-17T14:43:30.455Z,6.50
2023-02-17T14:45:57.664Z,6.50
2023-02-17T14:48:27.804Z,6.51
2023-02-17T14:50:57.417Z,6.54
2023-02-17T14:53:33.765Z,6.56
2023-02-17T14:56:09.635Z,6.58
2023-02-17T14:58:37.049Z,6.61
2023-02-17T15:01:06.090Z,6.64
2023-02-17T15:03:33.995Z,6.67
2023-02-17T15:06:01.420Z,6.69
2023-02-17T15:08:33.440Z,6.67
2023-02-17T15:11:01.080Z,6.65
2023-02-17T15:13:28.141Z,6.65
2023-02-17T15:15:55.246Z,6.65
2023-02-17T15:18:22.414Z,6.67
2023-02-17T15:20:52.014Z,6.70
2023-02-17T15:23:26.062Z,6.71
2023-02-17T15:25:56.233Z,6.74
2023-02-17T15:28:23.304Z,6.76
2023-02-17T15:30:55.975Z,6.77
2023-02-17T15:33:24.170Z,6.78
2023-02-17T15:35:58.143Z,6.80
2023-02-17T15:38:27.869Z,6.82
2023-02-17T15:40:58.767Z,6.84
2023-02-17T15:46:11.309Z,6.91
2023-02-17T15:48:39.488Z,6.94
2023-02-17T15:51:06.732Z,6.96
2023-02-17T15:53:34.647Z,6.95
2023-02-17T15:56:02.001Z,6.92
2023-02-17T15:58:30.499Z,6.89
2023-02-17T16:01:01.633Z,6.89
2023-02-17T16:03:29.389Z,6.90
2023-02-17T16:05:56.784Z,6.91
2023-02-17T16:08:35.744Z,6.93
2023-02-17T16:11:02.857Z,6.91
2023-02-17T16:13:30.722Z,6.89
2023-02-17T16:15:59.625Z,6.85
2023-02-17T16:18:26.859Z,6.83
2023-02-17T16:20:53.902Z,6.82
2023-02-17T16:23:21.012Z,6.82
2023-02-17T16:25:49.592Z,6.83
2023-02-17T16:28:20.161Z,6.85
2023-02-17T16:30:49.797Z,6.88
2023-02-17T16:33:18.402Z,6.91
2023-02-17T16:35:45.563Z,6.95
2023-02-17T16:38:24.132Z,6.96
2023-02-17T16:40:53.493Z,6.97
2023-02-17T16:43:30.800Z,6.96
2023-02-17T16:46:05.051Z,6.98
2023-02-17T16:48:35.903Z,7.00
2023-02-17T16:51:02.891Z,7.04
2023-02-17T16:53:29.887Z,7.08
2023-02-17T16:55:57.181Z,7.10
2023-02-17T16:58:26.224Z,7.15
2023-02-17T17:00:56.374Z,7.17
2023-02-17T17:03:23.816Z,7.18
2023-02-17T17:05:52.861Z,7.17
2023-02-17T17:08:21.721Z,7.18
2023-02-17T17:10:49.742Z,7.21
2023-02-17T17:13:17.046Z,7.24
2023-02-17T17:15:46.377Z,7.27
2023-02-17T17:18:21.318Z,7.32
2023-02-17T17:20:49.180Z,7.39
2023-02-17T17:23:17.110Z,7.42
2023-02-17T17:25:47.009Z,7.46
2023-02-17T17:28:17.031Z,7.50
2023-02-17T17:30:45.103Z,7.51
2023-02-17T17:33:12.252Z,7.53
2023-02-17T17:35:39.188Z,7.56
2023-02-17T17:38:06.565Z,7.59
2023-02-17T17:40:48.773Z,7.64
2023-02-17T17:43:17.638Z,7.69
2023-02-17T17:45:45.357Z,7.71
2023-02-17T17:48:14.884Z,7.69
2023-02-17T17:50:42.723Z,7.70
2023-02-17T17:53:11.014Z,7.71
2023-02-17T17:55:38.365Z,7.75
2023-02-17T17:58:05.879Z,7.75
2023-02-17T18:00:33.163Z,7.76
2023-02-17T18:03:00.280Z,7.72
2023-02-17T18:05:28.441Z,7.67
2023-02-17T18:07:56.796Z,7.62
2023-02-17T18:10:24.248Z,7.58
2023-02-17T18:12:51.652Z,7.53
2023-02-17T18:15:19.416Z,7.48
2023-02-17T18:17:48.131Z,7.48
2023-02-17T18:20:15.305Z,7.50
2023-02-17T18:22:42.455Z,7.52
2023-02-17T18:25:10.783Z,7.53
2023-02-17T18:27:42.860Z,7.57
2023-02-17T18:30:12.196Z,7.60
2023-02-17T18:32:39.115Z,7.60
2023-02-17T18:35:06.916Z,7.61
2023-02-17T18:37:35.465Z,7.65
2023-02-17T18:40:05.020Z,7.68
2023-02-17T18:42:32.279Z,7.72
2023-02-17T18:44:59.167Z,7.74
2023-02-17T18:47:26.757Z,7.79
2023-02-17T18:49:53.756Z,7.84
2023-02-17T18:52:20.814Z,7.87
2023-02-17T18:54:48.114Z,7.88
2023-02-17T18:57:15.004Z,7.91
2023-02-17T18:59:42.276Z,7.94
2023-02-17T19:02:11.504Z,7.95
2023-02-17T19:04:38.834Z,7.98
2023-02-17T19:07:07.344Z,8.04
2023-02-17T19:09:36.126Z,8.07
2023-02-17T19:12:03.471Z,8.10
2023-02-17T19:14:34.122Z,8.13
2023-02-17T19:17:01.233Z,8.12
2023-02-17T19:19:44.305Z,8.13
2023-02-17T19:22:21.504Z,8.15
2023-02-17T19:25:00.899Z,8.17
2023-02-17T19:27:37.285Z,8.19
2023-02-17T19:30:21.909Z,8.22
2023-02-17T19:32:54.726Z,8.24
2023-02-17T19:35:27.895Z,8.24
2023-02-17T19:38:03.580Z,8.20
2023-02-17T19:40:38.385Z,8.20
2023-02-17T19:43:05.432Z,8.20
2023-02-17T19:45:35.345Z,8.20
2023-02-17T19:48:02.744Z,8.22
2023-02-17T19:50:30.098Z,8.23
2023-02-17T19:52:57.408Z,8.27
2023-02-17T19:55:25.221Z,8.29
2023-02-17T19:57:53.578Z,8.31
2023-02-17T20:00:20.852Z,8.31
2023-02-17T20:02:47.928Z,8.31
2023-02-17T20:05:15.631Z,8.32
2023-02-17T20:07:42.858Z,8.32
2023-02-17T20:10:12.744Z,8.36
2023-02-17T20:12:39.707Z,8.40
2023-02-17T20:15:07.655Z,8.40
2023-02-17T20:17:34.657Z,8.40
2023-02-17T20:20:01.879Z,8.39
2023-02-17T20:22:29.011Z,8.39
2023-02-17T20:24:56.062Z,8.38
2023-02-17T20:27:23.105Z,8.40
2023-02-17T20:29:50.417Z,8.43
2023-02-17T20:32:17.664Z,8.46
2023-02-17T20:34:45.227Z,8.48
2023-02-17T20:37:12.289Z,8.49
2023-02-17T20:39:40.779Z,8.49
2023-02-17T20:42:08.260Z,8.49
2023-02-17T20:44:35.678Z,8.52
2023-02-17T20:47:02.951Z,8.54
2023-02-17T20:49:29.943Z,8.55
2023-02-17T20:51:57.358Z,8.58
2023-02-17T20:54:25.824Z,8.60
2023-02-17T20:56:52.871Z,8.60
2023-02-17T20:59:20.774Z,8.59
2023-02-17T21:01:48.331Z,8.57
2023-02-17T21:04:16.105Z,8.58
2023-02-17T21:06:43.512Z,8.59
2023-02-17T21:09:19.714Z,8.61
2023-02-17T21:11:47.003Z,8.64
2023-02-17T21:14:14.888Z,8.66
2023-02-17T21:16:42.672Z,8.65
2023-02-17T21:19:09.901Z,8.64
2023-02-17T21:21:36.948Z,8.68
2023-02-17T21:24:04.535Z,8.73
2023-02-17T21:26:33.725Z,8.75
2023-02-17T21:29:00.910Z,8.78
2023-02-17T21:31:31.809Z,8.80
2023-02-17T21:33:59.305Z,8.82
2023-02-17T21:36:29.089Z,8.84
2023-02-17T21:38:57.113Z,8.82
2023-02-17T21:41:26.826Z,8.82
2023-02-17T21:44:13.424Z,8.83
2023-02-17T21:46:42.659Z,8.87
2023-02-17T21:49:10.516Z,8.91
2023-02-17T21:51:39.070Z,8.95
2023-02-17T21:54:07.529Z,8.97
2023-02-17T21:56:34.820Z,8.97
2023-02-17T21:59:02.975Z,8.97
2023-02-17T22:01:30.256Z,8.99
2023-02-17T22:03:58.064Z,9.02
2023-02-17T22:06:28.831Z,9.06
2023-02-17T22:08:57.538Z,9.08
2023-02-17T22:11:27.807Z,9.10
2023-02-17T22:14:00.830Z,9.08
2023-02-17T22:16:30.460Z,9.09
2023-02-17T22:18:58.063Z,9.08
2023-02-17T22:21:25.640Z,9.10
2023-02-17T22:23:53.138Z,9.14
2023-02-17T22:26:22.732Z,9.16
2023-02-17T22:28:50.900Z,9.19
2023-02-17T22:31:22.076Z,9.19
2023-02-17T22:33:49.379Z,9.16
2023-02-17T22:36:19.690Z,9.15
2023-02-17T22:38:47.297Z,9.15
2023-02-17T22:41:17.780Z,9.14
2023-02-17T22:43:46.738Z,9.16
2023-02-17T22:46:16.630Z,9.16
2023-02-17T22:48:46.272Z,9.18
2023-02-17T22:51:16.347Z,9.16
2023-02-17T22:53:43.696Z,9.15
2023-02-17T22:56:11.081Z,9.13
2023-02-17T22:58:38.224Z,9.11
2023-02-17T23:01:10.112Z,9.09
2023-02-17T23:03:38.364Z,9.09
2023-02-17T23:06:15.397Z,9.10
2023-02-17T23:08:43.456Z,9.10
2023-02-17T23:11:12.583Z,9.10
2023-02-17T23:13:40.449Z,9.07
2023-02-17T23:16:08.487Z,9.05
2023-02-17T23:18:37.143Z,9.03
2023-02-17T23:21:13.156Z,8.99
2023-02-17T23:23:40.131Z,8.97
2023-02-17T23:26:07.859Z,8.96
2023-02-17T23:28:35.146Z,8.98
2023-02-17T23:31:02.310Z,8.99
2023-02-17T23:33:29.325Z,9.02
2023-02-17T23:35:56.182Z,9.03
2023-02-17T23:38:23.863Z,9.03
2023-02-17T23:40:52.295Z,9.00
2023-02-17T23:43:20.126Z,8.97
2023-02-17T23:45:47.406Z,8.94
2023-02-17T23:48:15.215Z,8.94
2023-02-17T23:50:42.644Z,8.92
2023-02-17T23:53:09.780Z,8.92
2023-02-17T23:55:37.047Z,8.93
2023-02-17T23:58:04.178Z,8.94
